LNG Ondo — ZCDT5 — position and weather

sailwx.info

Track history (hours):
 
Tides and Currents Weather Stations Pressure Air Temp Water Temp Dewpoint Dewpoint Depression Visibility Wind Speed Wind Dir Waves Ship Positions

LNG Ondo

Last reported at 2017-Nov-30 17:22 UTC. Time now 2017-Dec-11 05:40 UTC.
Position N 28°18' W 016°04'.
Warning: this ship's position is 10 days out of date.

Length 288 m; draft 9.4 m.

Type: Ship (hazmat cat B). MMSI: 310550000.

Date/timePositionNaut miles runAvg speedWind from/ knotsBaromVisibWave heightAir tempDewpointWater temp
2017-Nov-30 17:22N 28°18' W 016°04'4 9.8
2017-Nov-30 17:00N 28°22' W 016°04'510.2
2017-Nov-30 16:30N 28°26' W 016°07'5 9.0
2017-Nov-30 16:00N 28°29' W 016°11'0 0.8
2017-Nov-30 15:24N 28°30' W 016°11'0 0.0
2017-Nov-30 11:22N 28°30' W 016°11'0 0.0
2017-Nov-30 10:45N 28°30' W 016°11'0 0.3
2017-Nov-30 09:59N 28°29' W 016°11'2 3.8
2017-Nov-30 09:31N 28°28' W 016°10'2 4.8
2017-Nov-30 09:00N 28°27' W 016°08'6 7.3
2017-Nov-30 08:09N 28°25' W 016°01'1 6.2
2017-Nov-30 07:57N 28°24' W 015°60'4 9.4
2017-Nov-30 07:30N 28°26' W 015°55'713.7
2017-Nov-30 07:00N 28°31' W 015°50'714.2
2017-Nov-30 06:30N 28°37' W 015°45'714.9
2017-Nov-30 06:00N 28°41' W 015°39'815.1
2017-Nov-30 05:30N 28°46' W 015°32'815.3
2017-Nov-30 05:00N 28°51' W 015°25'815.3
2017-Nov-30 04:30N 28°56' W 015°19'815.3
2017-Nov-30 04:00N 29°02' W 015°13'815.0
2017-Nov-30 03:29N 29°07' W 015°07'715.0
2017-Nov-30 03:00N 29°10' W 014°59'814.8
2017-Nov-30 02:27N 29°14' W 014°51'714.8
2017-Nov-30 01:58N 29°19' W 014°45'715.3
2017-Nov-30 01:30N 29°23' W 014°38'51914.5
2017-Nov-28 13:38N 35°53' W 007°52'214.0
2017-Nov-28 13:30N 35°55' W 007°50'1514.1
2017-Nov-28 12:27N 36°07' W 007°39'614.1
2017-Nov-28 12:01N 36°11' W 007°34'914.2
2017-Nov-28 11:22N 36°18' W 007°26'54 1.1
2017-Nov-26 10:01N 35°38' W 008°11'317.3
2017-Nov-26 09:49N 35°36' W 008°13'1717.7
2017-Nov-26 08:52N 35°22' W 008°25'3617.4
2017-Nov-26 06:48N 34°55' W 008°54'516.1
2017-Nov-26 06:30N 34°51' W 008°58'816.2
2017-Nov-26 06:00N 34°45' W 009°04'5 2.3
2017-Nov-26 03:41N 34°49' W 008°60'1516.4
2017-Nov-26 02:47N 35°00' W 008°48'616.0
2017-Nov-26 02:23N 35°05' W 008°43'4315.8
2017-Nov-25 23:40N 35°36' W 008°07'9 8.7
2017-Nov-25 22:39N 35°44' W 008°02'616.2
2017-Nov-25 22:17N 35°40' W 008°07'516.1
2017-Nov-25 21:59N 35°36' W 008°11'816.2
2017-Nov-25 21:29N 35°30' W 008°17'816.2
2017-Nov-25 21:01N 35°24' W 008°23'816.5
2017-Nov-25 20:31N 35°18' W 008°30'816.6
2017-Nov-25 20:00N 35°11' W 008°36'816.3
2017-Nov-25 19:30N 35°05' W 008°43'816.0
2017-Nov-25 19:00N 34°59' W 008°49'2115.9
2017-Nov-25 17:40N 34°43' W 009°06'915.8
2017-Nov-25 17:05N 34°36' W 009°14'115.8
2017-Nov-25 17:00N 34°35' W 009°15'815.7
2017-Nov-25 16:30N 34°29' W 009°21'815.7
2017-Nov-25 16:00N 34°23' W 009°27'815.5
2017-Nov-25 15:30N 34°18' W 009°34'4713.0
2017-Nov-25 11:54N 34°52' W 008°56'3815.7
2017-Nov-25 09:27N 35°23' W 008°27'715.4
2017-Nov-25 09:01N 35°27' W 008°20'915.7
2017-Nov-25 08:26N 35°34' W 008°13'1015.8
2017-Nov-25 07:48N 35°42' W 008°07'15 6.1
2017-Nov-25 05:16N 35°30' W 008°18'416.6
2017-Nov-25 05:00N 35°27' W 008°22'17810.4
2017-Nov-24 11:56N 33°10' W 010°41'715.5
2017-Nov-24 11:30N 33°16' W 010°36'815.7
2017-Nov-24 11:00N 33°22' W 010°30'815.8
2017-Nov-24 10:30N 33°27' W 010°23'815.7
2017-Nov-24 10:00N 33°33' W 010°17'8815.6
2017-Nov-24 04:21N 34°42' W 009°09'514.3
2017-Nov-24 04:00N 34°45' W 009°05'510.1
2017-Nov-24 03:31N 34°41' W 009°08'915.4
2017-Nov-24 02:55N 34°34' W 009°15'915.4
2017-Nov-24 02:20N 34°27' W 009°22'715.3
2017-Nov-24 01:52N 34°22' W 009°28'514.9
2017-Nov-24 01:30N 34°17' W 009°32'45 2.7
2017-Nov-23 08:58N 34°52' W 008°56'614.3
2017-Nov-23 08:30N 34°57' W 008°51'714.4
2017-Nov-23 08:01N 35°02' W 008°45'714.5
2017-Nov-23 07:31N 35°08' W 008°39'714.3
2017-Nov-23 07:00N 35°13' W 008°34'714.3
2017-Nov-23 06:30N 35°19' W 008°28'1614.6
2017-Nov-23 05:25N 35°31' W 008°15'614.6
2017-Nov-23 05:00N 35°35' W 008°10'714.7
2017-Nov-23 04:30N 35°40' W 008°04'714.8
2017-Nov-23 04:01N 35°46' W 007°58'714.8
2017-Nov-23 03:30N 35°51' W 007°52'611.9
2017-Nov-23 03:00N 35°57' W 007°49'715.2
2017-Nov-23 02:30N 35°51' W 007°54'815.5
2017-Nov-23 02:00N 35°45' W 008°01'815.6
2017-Nov-23 01:30N 35°39' W 008°07'815.5
2017-Nov-23 01:00N 35°33' W 008°13'815.6
2017-Nov-23 00:30N 35°27' W 008°19'815.6
2017-Nov-23 00:00N 35°21' W 008°25'815.5
2017-Nov-22 23:30N 35°16' W 008°32'815.6
2017-Nov-22 23:00N 35°10' W 008°38'815.8
2017-Nov-22 22:30N 35°04' W 008°44'815.8
2017-Nov-22 22:00N 34°58' W 008°51'816.0
2017-Nov-22 21:30N 34°52' W 008°57'816.0
2017-Nov-22 21:00N 34°45' W 009°03'815.9
2017-Nov-22 20:30N 34°39' W 009°09'1615.7
2017-Nov-22 19:31N 34°28' W 009°22'115.7
2017-Nov-22 19:27N 34°27' W 009°23'  
Track history (hours):
 
Tides and Currents Weather Stations Pressure Air Temp Water Temp Dewpoint Dewpoint Depression Visibility Wind Speed Wind Dir Waves Ship Positions

LNG Ondo

Last reported at 2017-Nov-30 17:22 UTC. Time now 2017-Dec-11 05:40 UTC.
Position N 28°18' W 016°04'.
Warning: this ship's position is 10 days out of date.

Length 288 m; draft 9.4 m.

Type: Ship (hazmat cat B). MMSI: 310550000.

Date/timePositionNaut miles runAvg speedWind from/ knotsBaromVisibWave heightAir tempDewpointWater temp
2017-Nov-30 17:22N 28°18' W 016°04'4 9.8
2017-Nov-30 17:00N 28°22' W 016°04'510.2
2017-Nov-30 16:30N 28°26' W 016°07'5 9.0
2017-Nov-30 16:00N 28°29' W 016°11'0 0.8
2017-Nov-30 15:24N 28°30' W 016°11'0 0.0
2017-Nov-30 11:22N 28°30' W 016°11'0 0.0
2017-Nov-30 10:45N 28°30' W 016°11'0 0.3
2017-Nov-30 09:59N 28°29' W 016°11'2 3.8
2017-Nov-30 09:31N 28°28' W 016°10'2 4.8
2017-Nov-30 09:00N 28°27' W 016°08'6 7.3
2017-Nov-30 08:09N 28°25' W 016°01'1 6.2
2017-Nov-30 07:57N 28°24' W 015°60'4 9.4
2017-Nov-30 07:30N 28°26' W 015°55'713.7
2017-Nov-30 07:00N 28°31' W 015°50'714.2
2017-Nov-30 06:30N 28°37' W 015°45'714.9
2017-Nov-30 06:00N 28°41' W 015°39'815.1
2017-Nov-30 05:30N 28°46' W 015°32'815.3
2017-Nov-30 05:00N 28°51' W 015°25'815.3
2017-Nov-30 04:30N 28°56' W 015°19'815.3
2017-Nov-30 04:00N 29°02' W 015°13'815.0
2017-Nov-30 03:29N 29°07' W 015°07'715.0
2017-Nov-30 03:00N 29°10' W 014°59'814.8
2017-Nov-30 02:27N 29°14' W 014°51'714.8
2017-Nov-30 01:58N 29°19' W 014°45'715.3
2017-Nov-30 01:30N 29°23' W 014°38'51914.5
2017-Nov-28 13:38N 35°53' W 007°52'214.0
2017-Nov-28 13:30N 35°55' W 007°50'1514.1
2017-Nov-28 12:27N 36°07' W 007°39'614.1
2017-Nov-28 12:01N 36°11' W 007°34'914.2
2017-Nov-28 11:22N 36°18' W 007°26'54 1.1
2017-Nov-26 10:01N 35°38' W 008°11'317.3
2017-Nov-26 09:49N 35°36' W 008°13'1717.7
2017-Nov-26 08:52N 35°22' W 008°25'3617.4
2017-Nov-26 06:48N 34°55' W 008°54'516.1
2017-Nov-26 06:30N 34°51' W 008°58'816.2
2017-Nov-26 06:00N 34°45' W 009°04'5 2.3
2017-Nov-26 03:41N 34°49' W 008°60'1516.4
2017-Nov-26 02:47N 35°00' W 008°48'616.0
2017-Nov-26 02:23N 35°05' W 008°43'4315.8
2017-Nov-25 23:40N 35°36' W 008°07'9 8.7
2017-Nov-25 22:39N 35°44' W 008°02'616.2
2017-Nov-25 22:17N 35°40' W 008°07'516.1
2017-Nov-25 21:59N 35°36' W 008°11'816.2
2017-Nov-25 21:29N 35°30' W 008°17'816.2
2017-Nov-25 21:01N 35°24' W 008°23'816.5
2017-Nov-25 20:31N 35°18' W 008°30'816.6
2017-Nov-25 20:00N 35°11' W 008°36'816.3
2017-Nov-25 19:30N 35°05' W 008°43'816.0
2017-Nov-25 19:00N 34°59' W 008°49'2115.9
2017-Nov-25 17:40N 34°43' W 009°06'915.8
2017-Nov-25 17:05N 34°36' W 009°14'115.8
2017-Nov-25 17:00N 34°35' W 009°15'815.7
2017-Nov-25 16:30N 34°29' W 009°21'815.7
2017-Nov-25 16:00N 34°23' W 009°27'815.5
2017-Nov-25 15:30N 34°18' W 009°34'4713.0
2017-Nov-25 11:54N 34°52' W 008°56'3815.7
2017-Nov-25 09:27N 35°23' W 008°27'715.4
2017-Nov-25 09:01N 35°27' W 008°20'915.7
2017-Nov-25 08:26N 35°34' W 008°13'1015.8
2017-Nov-25 07:48N 35°42' W 008°07'15 6.1
2017-Nov-25 05:16N 35°30' W 008°18'416.6
2017-Nov-25 05:00N 35°27' W 008°22'17810.4
2017-Nov-24 11:56N 33°10' W 010°41'715.5
2017-Nov-24 11:30N 33°16' W 010°36'815.7
2017-Nov-24 11:00N 33°22' W 010°30'815.8
2017-Nov-24 10:30N 33°27' W 010°23'815.7
2017-Nov-24 10:00N 33°33' W 010°17'8815.6
2017-Nov-24 04:21N 34°42' W 009°09'514.3
2017-Nov-24 04:00N 34°45' W 009°05'510.1
2017-Nov-24 03:31N 34°41' W 009°08'915.4
2017-Nov-24 02:55N 34°34' W 009°15'915.4
2017-Nov-24 02:20N 34°27' W 009°22'715.3
2017-Nov-24 01:52N 34°22' W 009°28'514.9
2017-Nov-24 01:30N 34°17' W 009°32'45 2.7
2017-Nov-23 08:58N 34°52' W 008°56'614.3
2017-Nov-23 08:30N 34°57' W 008°51'714.4
2017-Nov-23 08:01N 35°02' W 008°45'714.5
2017-Nov-23 07:31N 35°08' W 008°39'714.3
2017-Nov-23 07:00N 35°13' W 008°34'714.3
2017-Nov-23 06:30N 35°19' W 008°28'1614.6
2017-Nov-23 05:25N 35°31' W 008°15'614.6
2017-Nov-23 05:00N 35°35' W 008°10'714.7
2017-Nov-23 04:30N 35°40' W 008°04'714.8
2017-Nov-23 04:01N 35°46' W 007°58'714.8
2017-Nov-23 03:30N 35°51' W 007°52'611.9
2017-Nov-23 03:00N 35°57' W 007°49'715.2
2017-Nov-23 02:30N 35°51' W 007°54'815.5
2017-Nov-23 02:00N 35°45' W 008°01'815.6
2017-Nov-23 01:30N 35°39' W 008°07'815.5
2017-Nov-23 01:00N 35°33' W 008°13'815.6
2017-Nov-23 00:30N 35°27' W 008°19'815.6
2017-Nov-23 00:00N 35°21' W 008°25'815.5
2017-Nov-22 23:30N 35°16' W 008°32'815.6
2017-Nov-22 23:00N 35°10' W 008°38'815.8
2017-Nov-22 22:30N 35°04' W 008°44'815.8
2017-Nov-22 22:00N 34°58' W 008°51'816.0
2017-Nov-22 21:30N 34°52' W 008°57'816.0
2017-Nov-22 21:00N 34°45' W 009°03'815.9
2017-Nov-22 20:30N 34°39' W 009°09'1615.7
2017-Nov-22 19:31N 34°28' W 009°22'115.7
2017-Nov-22 19:27N 34°27' W 009°23'  

Dump ship's entire track history